sensor_id;sensor_type;location;lat;lon;timestamp;P1;durP1;ratioP1;P2;durP2;ratioP2
71236;SDS011;58984;51.960;5.582;2022-11-25T00:02:15;9.55;;;5.15;;
71236;SDS011;58984;51.960;5.582;2022-11-25T00:04:40;14.38;;;4.85;;
71236;SDS011;58984;51.960;5.582;2022-11-25T00:07:06;10.00;;;4.93;;
71236;SDS011;58984;51.960;5.582;2022-11-25T00:09:32;8.75;;;4.50;;
71236;SDS011;58984;51.960;5.582;2022-11-25T00:11:57;8.68;;;4.93;;
71236;SDS011;58984;51.960;5.582;2022-11-25T00:14:23;9.63;;;4.82;;
71236;SDS011;58984;51.960;5.582;2022-11-25T00:16:48;9.70;;;4.63;;
71236;SDS011;58984;51.960;5.582;2022-11-25T00:19:14;13.85;;;5.25;;
71236;SDS011;58984;51.960;5.582;2022-11-25T00:21:40;10.75;;;5.22;;
71236;SDS011;58984;51.960;5.582;2022-11-25T00:24:06;12.25;;;4.53;;
71236;SDS011;58984;51.960;5.582;2022-11-25T00:26:33;10.32;;;4.25;;
71236;SDS011;58984;51.960;5.582;2022-11-25T00:29:00;14.10;;;5.63;;
71236;SDS011;58984;51.960;5.582;2022-11-25T00:31:32;8.80;;;4.50;;
71236;SDS011;58984;51.960;5.582;2022-11-25T00:33:59;10.02;;;4.70;;
71236;SDS011;58984;51.960;5.582;2022-11-25T00:38:55;10.98;;;4.90;;
71236;SDS011;58984;51.960;5.582;2022-11-25T00:41:23;11.98;;;4.50;;
71236;SDS011;58984;51.960;5.582;2022-11-25T00:44:21;11.45;;;4.97;;
71236;SDS011;58984;51.960;5.582;2022-11-25T00:49:36;11.45;;;4.68;;
71236;SDS011;58984;51.960;5.582;2022-11-25T00:52:03;13.07;;;4.38;;
71236;SDS011;58984;51.960;5.582;2022-11-25T00:54:29;10.85;;;4.50;;
71236;SDS011;58984;51.960;5.582;2022-11-25T00:56:55;7.75;;;4.53;;
71236;SDS011;58984;51.960;5.582;2022-11-25T00:59:21;12.32;;;4.80;;
71236;SDS011;58984;51.960;5.582;2022-11-25T01:01:46;11.25;;;4.97;;
71236;SDS011;58984;51.960;5.582;2022-11-25T01:04:13;11.93;;;4.70;;
71236;SDS011;58984;51.960;5.582;2022-11-25T01:06:38;10.20;;;4.25;;
71236;SDS011;58984;51.960;5.582;2022-11-25T01:09:05;10.80;;;4.47;;
71236;SDS011;58984;51.960;5.582;2022-11-25T01:11:31;9.23;;;4.78;;
71236;SDS011;58984;51.960;5.582;2022-11-25T01:13:57;19.10;;;5.18;;
71236;SDS011;58984;51.960;5.582;2022-11-25T01:16:23;10.13;;;4.00;;
71236;SDS011;58984;51.960;5.582;2022-11-25T01:18:49;15.05;;;4.88;;
71236;SDS011;58984;51.960;5.582;2022-11-25T01:21:19;9.65;;;4.20;;
71236;SDS011;58984;51.960;5.582;2022-11-25T01:23:47;12.57;;;4.38;;
71236;SDS011;58984;51.960;5.582;2022-11-25T01:26:15;12.75;;;5.30;;
71236;SDS011;58984;51.960;5.582;2022-11-25T01:28:42;10.85;;;3.90;;
71236;SDS011;58984;51.960;5.582;2022-11-25T01:31:10;11.80;;;4.95;;
71236;SDS011;58984;51.960;5.582;2022-11-25T01:33:43;7.43;;;4.15;;
71236;SDS011;58984;51.960;5.582;2022-11-25T01:36:10;9.90;;;3.78;;
71236;SDS011;58984;51.960;5.582;2022-11-25T01:38:38;13.00;;;4.68;;
71236;SDS011;58984;51.960;5.582;2022-11-25T01:41:04;10.90;;;4.30;;
71236;SDS011;58984;51.960;5.582;2022-11-25T01:43:31;10.23;;;4.32;;
71236;SDS011;58984;51.960;5.582;2022-11-25T01:46:04;11.13;;;4.32;;
71236;SDS011;58984;51.960;5.582;2022-11-25T01:48:38;12.82;;;4.88;;
71236;SDS011;58984;51.960;5.582;2022-11-25T01:51:18;10.80;;;4.43;;
71236;SDS011;58984;51.960;5.582;2022-11-25T01:53:48;9.55;;;4.22;;
71236;SDS011;58984;51.960;5.582;2022-11-25T01:56:15;9.38;;;4.45;;
71236;SDS011;58984;51.960;5.582;2022-11-25T01:58:41;10.73;;;4.45;;
71236;SDS011;58984;51.960;5.582;2022-11-25T02:01:08;15.10;;;4.60;;
71236;SDS011;58984;51.960;5.582;2022-11-25T02:03:36;12.63;;;4.75;;
71236;SDS011;58984;51.960;5.582;2022-11-25T02:09:14;15.10;;;4.88;;
71236;SDS011;58984;51.960;5.582;2022-11-25T02:11:42;11.38;;;4.50;;
71236;SDS011;58984;51.960;5.582;2022-11-25T02:14:09;9.43;;;4.55;;
71236;SDS011;58984;51.960;5.582;2022-11-25T02:16:38;6.97;;;3.80;;
71236;SDS011;58984;51.960;5.582;2022-11-25T02:19:04;10.63;;;4.32;;
71236;SDS011;58984;51.960;5.582;2022-11-25T02:24:13;14.02;;;4.43;;
71236;SDS011;58984;51.960;5.582;2022-11-25T02:26:46;11.75;;;4.38;;
71236;SDS011;58984;51.960;5.582;2022-11-25T02:29:12;14.68;;;4.28;;
71236;SDS011;58984;51.960;5.582;2022-11-25T02:31:37;9.57;;;4.65;;
71236;SDS011;58984;51.960;5.582;2022-11-25T02:34:03;10.38;;;4.20;;
71236;SDS011;58984;51.960;5.582;2022-11-25T02:36:28;9.63;;;4.15;;
71236;SDS011;58984;51.960;5.582;2022-11-25T02:38:55;9.43;;;4.47;;
71236;SDS011;58984;51.960;5.582;2022-11-25T02:43:59;11.02;;;4.07;;
71236;SDS011;58984;51.960;5.582;2022-11-25T02:46:26;9.48;;;3.83;;
71236;SDS011;58984;51.960;5.582;2022-11-25T02:48:53;9.90;;;4.43;;
71236;SDS011;58984;51.960;5.582;2022-11-25T02:51:21;13.43;;;4.45;;
71236;SDS011;58984;51.960;5.582;2022-11-25T02:53:48;10.77;;;4.25;;
71236;SDS011;58984;51.960;5.582;2022-11-25T02:56:17;12.32;;;4.55;;
71236;SDS011;58984;51.960;5.582;2022-11-25T02:58:43;12.75;;;4.05;;
71236;SDS011;58984;51.960;5.582;2022-11-25T03:01:09;10.23;;;3.60;;
71236;SDS011;58984;51.960;5.582;2022-11-25T03:03:35;11.68;;;3.90;;
71236;SDS011;58984;51.960;5.582;2022-11-25T03:06:01;11.48;;;4.38;;
71236;SDS011;58984;51.960;5.582;2022-11-25T03:08:27;14.98;;;4.43;;
71236;SDS011;58984;51.960;5.582;2022-11-25T03:10:53;7.75;;;3.90;;
71236;SDS011;58984;51.960;5.582;2022-11-25T03:13:19;8.70;;;3.97;;
71236;SDS011;58984;51.960;5.582;2022-11-25T03:15:45;9.77;;;3.72;;
71236;SDS011;58984;51.960;5.582;2022-11-25T03:18:11;8.43;;;3.83;;
71236;SDS011;58984;51.960;5.582;2022-11-25T03:20:36;12.40;;;4.00;;
71236;SDS011;58984;51.960;5.582;2022-11-25T03:23:03;6.75;;;3.85;;
71236;SDS011;58984;51.960;5.582;2022-11-25T03:25:29;8.27;;;3.60;;
71236;SDS011;58984;51.960;5.582;2022-11-25T03:27:55;8.40;;;3.30;;
71236;SDS011;58984;51.960;5.582;2022-11-25T03:30:22;10.18;;;3.33;;
71236;SDS011;58984;51.960;5.582;2022-11-25T03:32:49;7.22;;;3.80;;
71236;SDS011;58984;51.960;5.582;2022-11-25T03:35:14;11.13;;;3.60;;
71236;SDS011;58984;51.960;5.582;2022-11-25T03:37:40;7.05;;;3.78;;
71236;SDS011;58984;51.960;5.582;2022-11-25T03:40:06;9.57;;;3.55;;
71236;SDS011;58984;51.960;5.582;2022-11-25T03:42:33;8.85;;;3.50;;
71236;SDS011;58984;51.960;5.582;2022-11-25T03:44:59;7.45;;;3.38;;
71236;SDS011;58984;51.960;5.582;2022-11-25T03:47:25;5.57;;;3.17;;
71236;SDS011;58984;51.960;5.582;2022-11-25T03:49:50;4.40;;;3.28;;
71236;SDS011;58984;51.960;5.582;2022-11-25T03:52:16;7.85;;;3.33;;
71236;SDS011;58984;51.960;5.582;2022-11-25T03:54:42;7.65;;;3.13;;
71236;SDS011;58984;51.960;5.582;2022-11-25T03:57:08;7.75;;;3.47;;
71236;SDS011;58984;51.960;5.582;2022-11-25T03:59:34;6.32;;;2.97;;
71236;SDS011;58984;51.960;5.582;2022-11-25T04:01:59;7.13;;;2.92;;
71236;SDS011;58984;51.960;5.582;2022-11-25T04:04:25;7.72;;;3.45;;
71236;SDS011;58984;51.960;5.582;2022-11-25T04:06:51;7.18;;;3.03;;
71236;SDS011;58984;51.960;5.582;2022-11-25T04:09:16;5.18;;;3.00;;
71236;SDS011;58984;51.960;5.582;2022-11-25T04:11:42;5.40;;;2.85;;
71236;SDS011;58984;51.960;5.582;2022-11-25T04:14:26;5.18;;;2.78;;
71236;SDS011;58984;51.960;5.582;2022-11-25T04:16:52;5.00;;;2.53;;
71236;SDS011;58984;51.960;5.582;2022-11-25T04:19:17;5.00;;;2.35;;
71236;SDS011;58984;51.960;5.582;2022-11-25T04:21:43;7.47;;;3.13;;
71236;SDS011;58984;51.960;5.582;2022-11-25T04:24:08;6.20;;;2.30;;
71236;SDS011;58984;51.960;5.582;2022-11-25T04:26:34;4.50;;;2.30;;
71236;SDS011;58984;51.960;5.582;2022-11-25T04:29:00;6.05;;;2.42;;
71236;SDS011;58984;51.960;5.582;2022-11-25T04:31:25;5.18;;;2.50;;
71236;SDS011;58984;51.960;5.582;2022-11-25T04:33:51;5.22;;;2.42;;
71236;SDS011;58984;51.960;5.582;2022-11-25T04:36:17;5.85;;;2.58;;
71236;SDS011;58984;51.960;5.582;2022-11-25T04:38:42;6.32;;;2.65;;
71236;SDS011;58984;51.960;5.582;2022-11-25T04:41:08;5.95;;;2.53;;
71236;SDS011;58984;51.960;5.582;2022-11-25T04:43:34;4.82;;;2.28;;
71236;SDS011;58984;51.960;5.582;2022-11-25T04:46:00;3.47;;;1.95;;
71236;SDS011;58984;51.960;5.582;2022-11-25T04:48:26;3.80;;;2.20;;
71236;SDS011;58984;51.960;5.582;2022-11-25T04:50:52;6.43;;;2.13;;
71236;SDS011;58984;51.960;5.582;2022-11-25T04:53:18;3.35;;;2.15;;
71236;SDS011;58984;51.960;5.582;2022-11-25T04:55:44;4.20;;;2.25;;
71236;SDS011;58984;51.960;5.582;2022-11-25T04:58:10;5.85;;;2.40;;
71236;SDS011;58984;51.960;5.582;2022-11-25T05:00:36;4.35;;;2.22;;
71236;SDS011;58984;51.960;5.582;2022-11-25T05:03:01;5.28;;;2.08;;
71236;SDS011;58984;51.960;5.582;2022-11-25T05:05:27;3.22;;;2.05;;
71236;SDS011;58984;51.960;5.582;2022-11-25T05:07:53;5.85;;;2.63;;
71236;SDS011;58984;51.960;5.582;2022-11-25T05:10:18;3.08;;;1.98;;
71236;SDS011;58984;51.960;5.582;2022-11-25T05:12:44;6.25;;;2.75;;
71236;SDS011;58984;51.960;5.582;2022-11-25T05:15:10;4.05;;;2.55;;
71236;SDS011;58984;51.960;5.582;2022-11-25T05:17:35;5.28;;;2.53;;
71236;SDS011;58984;51.960;5.582;2022-11-25T05:20:02;6.03;;;2.83;;
71236;SDS011;58984;51.960;5.582;2022-11-25T05:22:29;4.90;;;2.55;;
71236;SDS011;58984;51.960;5.582;2022-11-25T05:24:56;3.42;;;2.17;;
71236;SDS011;58984;51.960;5.582;2022-11-25T05:27:22;5.65;;;2.60;;
71236;SDS011;58984;51.960;5.582;2022-11-25T05:29:48;4.30;;;2.20;;
71236;SDS011;58984;51.960;5.582;2022-11-25T05:32:15;5.55;;;2.67;;
71236;SDS011;58984;51.960;5.582;2022-11-25T05:34:41;5.95;;;2.40;;
71236;SDS011;58984;51.960;5.582;2022-11-25T05:37:07;4.50;;;2.50;;
71236;SDS011;58984;51.960;5.582;2022-11-25T05:39:33;4.22;;;2.00;;
71236;SDS011;58984;51.960;5.582;2022-11-25T05:41:59;4.80;;;2.20;;
71236;SDS011;58984;51.960;5.582;2022-11-25T05:44:25;3.83;;;2.15;;
71236;SDS011;58984;51.960;5.582;2022-11-25T05:46:50;2.70;;;1.80;;
71236;SDS011;58984;51.960;5.582;2022-11-25T05:49:16;3.83;;;1.80;;
71236;SDS011;58984;51.960;5.582;2022-11-25T05:51:43;4.95;;;1.88;;
71236;SDS011;58984;51.960;5.582;2022-11-25T05:54:09;4.85;;;1.75;;
71236;SDS011;58984;51.960;5.582;2022-11-25T05:56:34;4.63;;;2.03;;
71236;SDS011;58984;51.960;5.582;2022-11-25T05:59:00;4.63;;;1.92;;
71236;SDS011;58984;51.960;5.582;2022-11-25T06:01:27;3.05;;;1.98;;
71236;SDS011;58984;51.960;5.582;2022-11-25T06:03:52;3.45;;;2.08;;
71236;SDS011;58984;51.960;5.582;2022-11-25T06:06:18;4.00;;;2.33;;
71236;SDS011;58984;51.960;5.582;2022-11-25T06:08:44;3.67;;;1.70;;
71236;SDS011;58984;51.960;5.582;2022-11-25T06:11:11;4.57;;;2.13;;
71236;SDS011;58984;51.960;5.582;2022-11-25T06:13:38;2.90;;;1.45;;
71236;SDS011;58984;51.960;5.582;2022-11-25T06:16:06;2.42;;;1.70;;
71236;SDS011;58984;51.960;5.582;2022-11-25T06:18:36;1.85;;;1.65;;
71236;SDS011;58984;51.960;5.582;2022-11-25T06:21:03;3.15;;;1.65;;
71236;SDS011;58984;51.960;5.582;2022-11-25T06:23:29;4.85;;;1.92;;
71236;SDS011;58984;51.960;5.582;2022-11-25T06:26:12;8.65;;;1.90;;
71236;SDS011;58984;51.960;5.582;2022-11-25T06:31:08;4.53;;;1.90;;
71236;SDS011;58984;51.960;5.582;2022-11-25T06:33:35;4.88;;;2.00;;
71236;SDS011;58984;51.960;5.582;2022-11-25T06:36:05;4.50;;;2.15;;
71236;SDS011;58984;51.960;5.582;2022-11-25T06:38:32;2.40;;;1.63;;
71236;SDS011;58984;51.960;5.582;2022-11-25T06:41:03;4.20;;;1.75;;
71236;SDS011;58984;51.960;5.582;2022-11-25T06:43:30;3.75;;;2.00;;
71236;SDS011;58984;51.960;5.582;2022-11-25T06:46:09;2.85;;;2.00;;
71236;SDS011;58984;51.960;5.582;2022-11-25T06:48:36;3.72;;;1.88;;
71236;SDS011;58984;51.960;5.582;2022-11-25T06:51:03;3.67;;;2.42;;
71236;SDS011;58984;51.960;5.582;2022-11-25T06:53:30;4.38;;;2.13;;
71236;SDS011;58984;51.960;5.582;2022-11-25T06:56:00;3.78;;;2.20;;
71236;SDS011;58984;51.960;5.582;2022-11-25T06:58:26;5.15;;;3.20;;
71236;SDS011;58984;51.960;5.582;2022-11-25T07:00:58;5.60;;;2.25;;
71236;SDS011;58984;51.960;5.582;2022-11-25T07:03:25;2.58;;;2.05;;
71236;SDS011;58984;51.960;5.582;2022-11-25T07:05:50;2.85;;;2.22;;
71236;SDS011;58984;51.960;5.582;2022-11-25T07:08:16;4.53;;;2.10;;
71236;SDS011;58984;51.960;5.582;2022-11-25T07:10:41;4.25;;;2.10;;
71236;SDS011;58984;51.960;5.582;2022-11-25T07:13:07;4.47;;;2.10;;
71236;SDS011;58984;51.960;5.582;2022-11-25T07:15:33;3.20;;;2.00;;
71236;SDS011;58984;51.960;5.582;2022-11-25T07:17:58;2.90;;;2.15;;
71236;SDS011;58984;51.960;5.582;2022-11-25T07:20:24;5.57;;;2.10;;
71236;SDS011;58984;51.960;5.582;2022-11-25T07:22:51;3.17;;;1.98;;
71236;SDS011;58984;51.960;5.582;2022-11-25T07:25:17;3.70;;;2.00;;
71236;SDS011;58984;51.960;5.582;2022-11-25T07:27:42;4.78;;;2.22;;
71236;SDS011;58984;51.960;5.582;2022-11-25T07:30:08;3.85;;;2.28;;
71236;SDS011;58984;51.960;5.582;2022-11-25T07:32:34;2.10;;;1.90;;
71236;SDS011;58984;51.960;5.582;2022-11-25T07:35:00;3.83;;;1.98;;
71236;SDS011;58984;51.960;5.582;2022-11-25T07:37:25;5.25;;;2.25;;
71236;SDS011;58984;51.960;5.582;2022-11-25T07:39:51;3.38;;;2.45;;
71236;SDS011;58984;51.960;5.582;2022-11-25T07:42:17;2.95;;;2.22;;
71236;SDS011;58984;51.960;5.582;2022-11-25T07:44:42;4.30;;;1.75;;
71236;SDS011;58984;51.960;5.582;2022-11-25T07:47:08;2.22;;;1.85;;
71236;SDS011;58984;51.960;5.582;2022-11-25T07:49:34;3.67;;;2.22;;
71236;SDS011;58984;51.960;5.582;2022-11-25T07:51:59;5.75;;;2.15;;
71236;SDS011;58984;51.960;5.582;2022-11-25T07:54:26;3.92;;;2.10;;
71236;SDS011;58984;51.960;5.582;2022-11-25T07:56:52;3.90;;;2.17;;
71236;SDS011;58984;51.960;5.582;2022-11-25T07:59:19;5.75;;;2.10;;
71236;SDS011;58984;51.960;5.582;2022-11-25T08:01:47;3.22;;;2.00;;
71236;SDS011;58984;51.960;5.582;2022-11-25T08:04:14;4.55;;;2.50;;
71236;SDS011;58984;51.960;5.582;2022-11-25T08:06:40;2.90;;;2.00;;
71236;SDS011;58984;51.960;5.582;2022-11-25T08:09:08;5.47;;;2.22;;
71236;SDS011;58984;51.960;5.582;2022-11-25T08:11:35;3.28;;;1.98;;
71236;SDS011;58984;51.960;5.582;2022-11-25T08:14:01;3.67;;;1.88;;
71236;SDS011;58984;51.960;5.582;2022-11-25T08:16:27;4.00;;;2.28;;
71236;SDS011;58984;51.960;5.582;2022-11-25T08:18:57;5.60;;;2.58;;
71236;SDS011;58984;51.960;5.582;2022-11-25T08:21:25;4.80;;;2.58;;
71236;SDS011;58984;51.960;5.582;2022-11-25T08:23:51;8.93;;;2.35;;
71236;SDS011;58984;51.960;5.582;2022-11-25T08:26:27;4.28;;;2.47;;
71236;SDS011;58984;51.960;5.582;2022-11-25T08:28:54;5.68;;;1.98;;
71236;SDS011;58984;51.960;5.582;2022-11-25T08:31:25;6.20;;;2.13;;
71236;SDS011;58984;51.960;5.582;2022-11-25T08:33:55;5.63;;;2.30;;
71236;SDS011;58984;51.960;5.582;2022-11-25T08:36:22;6.07;;;2.55;;
71236;SDS011;58984;51.960;5.582;2022-11-25T08:38:50;2.92;;;1.95;;
71236;SDS011;58984;51.960;5.582;2022-11-25T08:41:18;4.35;;;2.38;;
71236;SDS011;58984;51.960;5.582;2022-11-25T08:43:51;2.38;;;1.80;;
71236;SDS011;58984;51.960;5.582;2022-11-25T08:46:19;4.07;;;2.55;;
71236;SDS011;58984;51.960;5.582;2022-11-25T08:48:46;5.07;;;2.47;;
71236;SDS011;58984;51.960;5.582;2022-11-25T08:51:13;6.18;;;2.42;;
71236;SDS011;58984;51.960;5.582;2022-11-25T08:53:41;4.90;;;2.40;;
71236;SDS011;58984;51.960;5.582;2022-11-25T08:56:08;3.70;;;2.22;;
71236;SDS011;58984;51.960;5.582;2022-11-25T08:58:35;5.50;;;2.38;;
71236;SDS011;58984;51.960;5.582;2022-11-25T09:01:02;5.35;;;2.40;;
71236;SDS011;58984;51.960;5.582;2022-11-25T09:03:31;5.53;;;3.08;;
71236;SDS011;58984;51.960;5.582;2022-11-25T09:06:01;6.28;;;2.50;;
71236;SDS011;58984;51.960;5.582;2022-11-25T09:08:28;3.50;;;2.55;;
71236;SDS011;58984;51.960;5.582;2022-11-25T09:10:55;4.93;;;2.42;;
71236;SDS011;58984;51.960;5.582;2022-11-25T09:13:21;4.07;;;2.35;;
71236;SDS011;58984;51.960;5.582;2022-11-25T09:15:46;4.32;;;2.20;;
71236;SDS011;58984;51.960;5.582;2022-11-25T09:18:12;5.82;;;2.42;;
71236;SDS011;58984;51.960;5.582;2022-11-25T09:20:39;3.92;;;2.55;;
71236;SDS011;58984;51.960;5.582;2022-11-25T09:23:06;3.53;;;2.50;;
71236;SDS011;58984;51.960;5.582;2022-11-25T09:25:32;3.67;;;2.70;;
71236;SDS011;58984;51.960;5.582;2022-11-25T09:27:58;7.22;;;2.42;;
71236;SDS011;58984;51.960;5.582;2022-11-25T09:30:24;8.63;;;3.40;;
71236;SDS011;58984;51.960;5.582;2022-11-25T09:32:51;4.47;;;2.58;;
71236;SDS011;58984;51.960;5.582;2022-11-25T09:35:19;5.05;;;2.80;;
71236;SDS011;58984;51.960;5.582;2022-11-25T09:37:46;5.88;;;3.08;;
71236;SDS011;58984;51.960;5.582;2022-11-25T09:54:38;4.47;;;2.35;;
71236;SDS011;58984;51.960;5.582;2022-11-25T09:57:24;6.05;;;2.70;;
71236;SDS011;58984;51.960;5.582;2022-11-25T10:02:41;5.15;;;2.65;;
71236;SDS011;58984;51.960;5.582;2022-11-25T10:05:28;5.35;;;2.63;;
71236;SDS011;58984;51.960;5.582;2022-11-25T10:08:11;4.63;;;2.75;;
71236;SDS011;58984;51.960;5.582;2022-11-25T10:11:02;4.85;;;2.78;;
71236;SDS011;58984;51.960;5.582;2022-11-25T10:13:53;5.63;;;2.70;;
71236;SDS011;58984;51.960;5.582;2022-11-25T10:19:25;6.60;;;3.58;;
71236;SDS011;58984;51.960;5.582;2022-11-25T10:22:21;5.30;;;2.92;;
71236;SDS011;58984;51.960;5.582;2022-11-25T10:27:56;9.15;;;3.70;;
71236;SDS011;58984;51.960;5.582;2022-11-25T10:30:47;5.80;;;3.55;;
71236;SDS011;58984;51.960;5.582;2022-11-25T10:33:40;5.60;;;3.30;;
71236;SDS011;58984;51.960;5.582;2022-11-25T10:38:41;6.80;;;3.90;;
71236;SDS011;58984;51.960;5.582;2022-11-25T10:41:10;7.93;;;3.42;;
71236;SDS011;58984;51.960;5.582;2022-11-25T10:43:39;5.00;;;3.67;;
71236;SDS011;58984;51.960;5.582;2022-11-25T10:48:53;7.35;;;3.78;;
71236;SDS011;58984;51.960;5.582;2022-11-25T10:54:10;7.10;;;3.85;;
71236;SDS011;58984;51.960;5.582;2022-11-25T10:59:22;7.25;;;3.55;;
71236;SDS011;58984;51.960;5.582;2022-11-25T11:01:51;7.22;;;3.63;;
71236;SDS011;58984;51.960;5.582;2022-11-25T11:04:28;9.93;;;3.58;;
71236;SDS011;58984;51.960;5.582;2022-11-25T11:06:54;4.88;;;3.55;;
71236;SDS011;58984;51.960;5.582;2022-11-25T11:09:37;6.18;;;3.70;;
71236;SDS011;58984;51.960;5.582;2022-11-25T11:12:24;6.38;;;3.85;;
71236;SDS011;58984;51.960;5.582;2022-11-25T11:14:51;6.80;;;3.63;;
71236;SDS011;58984;51.960;5.582;2022-11-25T11:20:37;5.78;;;3.53;;
71236;SDS011;58984;51.960;5.582;2022-11-25T11:22:50;6.60;;;3.88;;
71236;SDS011;58984;51.960;5.582;2022-11-25T11:25:30;6.25;;;3.50;;
71236;SDS011;58984;51.960;5.582;2022-11-25T11:27:57;7.60;;;3.80;;
71236;SDS011;58984;51.960;5.582;2022-11-25T11:30:25;5.65;;;3.42;;
71236;SDS011;58984;51.960;5.582;2022-11-25T11:33:00;9.95;;;3.83;;
71236;SDS011;58984;51.960;5.582;2022-11-25T11:35:51;10.07;;;3.90;;
71236;SDS011;58984;51.960;5.582;2022-11-25T11:41:08;10.20;;;3.80;;
71236;SDS011;58984;51.960;5.582;2022-11-25T11:52:13;5.18;;;3.40;;
71236;SDS011;58984;51.960;5.582;2022-11-25T11:55:00;10.30;;;3.47;;
71236;SDS011;58984;51.960;5.582;2022-11-25T12:00:15;9.13;;;3.45;;
71236;SDS011;58984;51.960;5.582;2022-11-25T12:02:51;5.38;;;2.95;;
71236;SDS011;58984;51.960;5.582;2022-11-25T12:05:30;9.93;;;3.28;;
71236;SDS011;58984;51.960;5.582;2022-11-25T12:10:47;7.43;;;3.05;;
71236;SDS011;58984;51.960;5.582;2022-11-25T12:13:26;6.80;;;3.30;;
71236;SDS011;58984;51.960;5.582;2022-11-25T12:16:03;6.10;;;3.42;;
71236;SDS011;58984;51.960;5.582;2022-11-25T12:21:06;21.67;;;10.60;;
71236;SDS011;58984;51.960;5.582;2022-11-25T12:26:26;14.90;;;5.57;;
71236;SDS011;58984;51.960;5.582;2022-11-25T12:29:14;11.18;;;4.68;;
71236;SDS011;58984;51.960;5.582;2022-11-25T12:31:51;9.30;;;4.43;;
71236;SDS011;58984;51.960;5.582;2022-11-25T12:34:43;8.40;;;4.10;;
71236;SDS011;58984;51.960;5.582;2022-11-25T12:37:15;4.88;;;3.30;;
71236;SDS011;58984;51.960;5.582;2022-11-25T12:40:06;8.43;;;3.75;;
71236;SDS011;58984;51.960;5.582;2022-11-25T12:42:42;8.65;;;3.72;;
71236;SDS011;58984;51.960;5.582;2022-11-25T12:45:20;12.35;;;3.72;;
71236;SDS011;58984;51.960;5.582;2022-11-25T12:47:47;7.90;;;3.92;;
71236;SDS011;58984;51.960;5.582;2022-11-25T12:50:17;9.15;;;3.47;;
71236;SDS011;58984;51.960;5.582;2022-11-25T12:55:23;9.80;;;3.67;;
71236;SDS011;58984;51.960;5.582;2022-11-25T13:16:50;3.58;;;2.50;;
71236;SDS011;58984;51.960;5.582;2022-11-25T13:19:18;8.18;;;3.15;;
71236;SDS011;58984;51.960;5.582;2022-11-25T13:21:55;12.15;;;3.70;;
71236;SDS011;58984;51.960;5.582;2022-11-25T13:24:37;5.35;;;3.00;;
71236;SDS011;58984;51.960;5.582;2022-11-25T13:27:07;6.65;;;3.22;;
71236;SDS011;58984;51.960;5.582;2022-11-25T13:29:53;8.90;;;3.60;;
71236;SDS011;58984;51.960;5.582;2022-11-25T13:32:23;12.02;;;4.05;;
71236;SDS011;58984;51.960;5.582;2022-11-25T13:37:37;6.25;;;3.60;;
71236;SDS011;58984;51.960;5.582;2022-11-25T13:40:29;6.50;;;3.08;;
71236;SDS011;58984;51.960;5.582;2022-11-25T13:43:00;8.05;;;3.60;;
71236;SDS011;58984;51.960;5.582;2022-11-25T13:45:32;9.52;;;3.58;;
71236;SDS011;58984;51.960;5.582;2022-11-25T13:48:18;9.73;;;3.40;;
71236;SDS011;58984;51.960;5.582;2022-11-25T13:50:51;9.68;;;3.67;;
71236;SDS011;58984;51.960;5.582;2022-11-25T13:53:36;8.63;;;3.25;;
71236;SDS011;58984;51.960;5.582;2022-11-25T14:04:11;7.03;;;3.17;;
71236;SDS011;58984;51.960;5.582;2022-11-25T14:23:10;9.98;;;3.95;;
71236;SDS011;58984;51.960;5.582;2022-11-25T14:30:43;9.73;;;3.72;;
71236;SDS011;58984;51.960;5.582;2022-11-25T14:33:14;7.55;;;3.33;;
71236;SDS011;58984;51.960;5.582;2022-11-25T14:35:48;7.68;;;3.42;;
71236;SDS011;58984;51.960;5.582;2022-11-25T14:38:18;11.50;;;4.07;;
71236;SDS011;58984;51.960;5.582;2022-11-25T14:40:53;9.55;;;3.88;;
71236;SDS011;58984;51.960;5.582;2022-11-25T14:43:24;9.63;;;4.30;;
71236;SDS011;58984;51.960;5.582;2022-11-25T14:48:39;9.00;;;3.75;;
71236;SDS011;58984;51.960;5.582;2022-11-25T14:51:06;13.13;;;4.30;;
71236;SDS011;58984;51.960;5.582;2022-11-25T14:53:39;11.23;;;4.50;;
71236;SDS011;58984;51.960;5.582;2022-11-25T14:56:07;10.30;;;4.93;;
71236;SDS011;58984;51.960;5.582;2022-11-25T14:58:33;16.30;;;5.57;;
71236;SDS011;58984;51.960;5.582;2022-11-25T15:01:16;14.75;;;7.20;;
71236;SDS011;58984;51.960;5.582;2022-11-25T15:03:50;14.02;;;7.03;;
71236;SDS011;58984;51.960;5.582;2022-11-25T15:06:26;17.40;;;7.35;;
71236;SDS011;58984;51.960;5.582;2022-11-25T15:08:57;17.52;;;7.65;;
71236;SDS011;58984;51.960;5.582;2022-11-25T15:11:24;12.60;;;6.53;;
71236;SDS011;58984;51.960;5.582;2022-11-25T15:13:54;13.25;;;6.80;;
71236;SDS011;58984;51.960;5.582;2022-11-25T15:16:37;13.50;;;6.70;;
71236;SDS011;58984;51.960;5.582;2022-11-25T15:19:05;13.27;;;5.78;;
71236;SDS011;58984;51.960;5.582;2022-11-25T15:21:41;16.58;;;6.60;;
71236;SDS011;58984;51.960;5.582;2022-11-25T15:24:21;13.00;;;6.47;;
71236;SDS011;58984;51.960;5.582;2022-11-25T15:26:50;13.98;;;7.07;;
71236;SDS011;58984;51.960;5.582;2022-11-25T15:29:17;23.73;;;12.30;;
71236;SDS011;58984;51.960;5.582;2022-11-25T15:31:43;32.15;;;15.15;;
71236;SDS011;58984;51.960;5.582;2022-11-25T15:34:11;22.92;;;13.02;;
71236;SDS011;58984;51.960;5.582;2022-11-25T15:36:38;21.73;;;10.52;;
71236;SDS011;58984;51.960;5.582;2022-11-25T15:39:14;18.15;;;9.35;;
71236;SDS011;58984;51.960;5.582;2022-11-25T15:41:44;17.48;;;8.57;;
71236;SDS011;58984;51.960;5.582;2022-11-25T15:44:18;16.05;;;7.90;;
71236;SDS011;58984;51.960;5.582;2022-11-25T15:46:51;17.88;;;7.63;;
71236;SDS011;58984;51.960;5.582;2022-11-25T15:49:23;20.77;;;7.75;;
71236;SDS011;58984;51.960;5.582;2022-11-25T15:51:59;15.35;;;7.78;;
71236;SDS011;58984;51.960;5.582;2022-11-25T15:54:30;19.00;;;7.85;;
71236;SDS011;58984;51.960;5.582;2022-11-25T15:57:12;16.85;;;6.95;;
71236;SDS011;58984;51.960;5.582;2022-11-25T16:02:33;14.93;;;7.10;;
71236;SDS011;58984;51.960;5.582;2022-11-25T16:10:21;18.05;;;7.22;;
71236;SDS011;58984;51.960;5.582;2022-11-25T16:18:43;13.25;;;7.70;;
71236;SDS011;58984;51.960;5.582;2022-11-25T16:29:16;21.50;;;8.50;;
71236;SDS011;58984;51.960;5.582;2022-11-25T16:31:46;19.00;;;9.30;;
71236;SDS011;58984;51.960;5.582;2022-11-25T16:34:13;23.40;;;10.13;;
71236;SDS011;58984;51.960;5.582;2022-11-25T16:36:42;15.38;;;8.23;;
71236;SDS011;58984;51.960;5.582;2022-11-25T16:39:08;21.30;;;9.45;;
71236;SDS011;58984;51.960;5.582;2022-11-25T16:41:34;14.27;;;7.82;;
71236;SDS011;58984;51.960;5.582;2022-11-25T16:44:00;23.90;;;8.45;;
71236;SDS011;58984;51.960;5.582;2022-11-25T16:46:35;15.73;;;8.40;;
71236;SDS011;58984;51.960;5.582;2022-11-25T16:49:03;14.80;;;8.95;;
71236;SDS011;58984;51.960;5.582;2022-11-25T16:51:35;19.77;;;8.50;;
71236;SDS011;58984;51.960;5.582;2022-11-25T16:54:01;16.77;;;8.10;;
71236;SDS011;58984;51.960;5.582;2022-11-25T16:56:26;16.75;;;7.85;;
71236;SDS011;58984;51.960;5.582;2022-11-25T16:58:53;18.02;;;8.35;;
71236;SDS011;58984;51.960;5.582;2022-11-25T17:01:20;17.38;;;8.00;;
71236;SDS011;58984;51.960;5.582;2022-11-25T17:03:48;18.30;;;8.05;;
71236;SDS011;58984;51.960;5.582;2022-11-25T17:06:15;18.67;;;8.15;;
71236;SDS011;58984;51.960;5.582;2022-11-25T17:08:42;12.50;;;7.68;;
71236;SDS011;58984;51.960;5.582;2022-11-25T17:11:12;13.13;;;7.22;;
71236;SDS011;58984;51.960;5.582;2022-11-25T17:13:51;18.45;;;7.75;;
71236;SDS011;58984;51.960;5.582;2022-11-25T17:16:22;11.45;;;7.00;;
71236;SDS011;58984;51.960;5.582;2022-11-25T17:18:50;16.35;;;8.05;;
71236;SDS011;58984;51.960;5.582;2022-11-25T17:21:17;17.85;;;7.80;;
71236;SDS011;58984;51.960;5.582;2022-11-25T17:23:44;16.98;;;8.43;;
71236;SDS011;58984;51.960;5.582;2022-11-25T17:26:23;13.90;;;8.20;;
71236;SDS011;58984;51.960;5.582;2022-11-25T17:28:55;14.75;;;8.15;;
71236;SDS011;58984;51.960;5.582;2022-11-25T17:31:24;18.45;;;8.13;;